createdAt,value
2018-04-15T00:09:00.433Z,1009.1
2018-04-15T00:19:15.695Z,1009.1
2018-04-15T00:29:30.603Z,1009
2018-04-15T00:39:46.209Z,1008.9
2018-04-15T00:50:00.237Z,1008.9
2018-04-15T01:00:14.364Z,1008.8
2018-04-15T01:10:28.729Z,1008.6
2018-04-15T01:20:42.919Z,1009.3
2018-04-15T01:30:57.968Z,1009.1
2018-04-15T01:41:13.334Z,1009
2018-04-15T01:51:28.177Z,1008.9
2018-04-15T02:01:43.620Z,1008.8
2018-04-15T02:11:58.140Z,1008.6
2018-04-15T02:22:12.210Z,1008.5
2018-04-15T02:32:26.319Z,1008.4
2018-04-15T02:42:40.689Z,1008.2
2018-04-15T02:52:54.433Z,1008.2
2018-04-15T03:03:08.940Z,1008.1
2018-04-15T03:13:23.144Z,1008.2
2018-04-15T03:23:37.921Z,1008.1
2018-04-15T03:33:53.709Z,1008.1
2018-04-15T03:44:09.321Z,1008
2018-04-15T03:54:24.756Z,1008.1
2018-04-15T04:04:39.041Z,1008.1
2018-04-15T04:14:52.743Z,1008.1
2018-04-15T04:25:07.319Z,1008
2018-04-15T04:35:21.650Z,1008
2018-04-15T04:45:35.464Z,1008
2018-04-15T04:55:50.021Z,1008
2018-04-15T05:06:05.385Z,1008
2018-04-15T05:16:20.685Z,1008.1
2018-04-15T05:26:34.452Z,1008.1
2018-04-15T05:36:49.294Z,1008.2
2018-04-15T05:47:04.549Z,1008.1
2018-04-15T05:57:18.933Z,1008.1
2018-04-15T06:07:34.220Z,1008
2018-04-15T06:17:49.439Z,1008
2018-04-15T06:28:04.300Z,1007.9
2018-04-15T06:38:19.873Z,1007.8
2018-04-15T06:48:34.779Z,1007.6
2018-04-15T06:58:49.343Z,1007.7
2018-04-15T07:09:04.146Z,1007.6
2018-04-15T07:19:18.921Z,1007.4
2018-04-15T07:29:33.663Z,1007.3
2018-04-15T07:39:48.119Z,1007.3
2018-04-15T07:50:03.162Z,1007.3
2018-04-15T08:00:17.510Z,1007.2
2018-04-15T08:10:32.987Z,1007.4
2018-04-15T08:20:46.807Z,1007.3
2018-04-15T08:31:00.615Z,1007
2018-04-15T08:41:15.473Z,1007.1
2018-04-15T08:51:30.429Z,1006.9
2018-04-15T09:01:45.421Z,1007.1
2018-04-15T09:12:00.366Z,1006.8
2018-04-15T09:22:14.291Z,1006.8
2018-04-15T09:32:29.206Z,1006.6
2018-04-15T09:42:44.330Z,1006.3
2018-04-15T09:52:58.326Z,1006.7
2018-04-15T10:03:12.914Z,1006.4
2018-04-15T10:13:27.322Z,1006.2
2018-04-15T10:23:42.876Z,1006.5
2018-04-15T10:33:57.229Z,1006.4
2018-04-15T10:44:12.292Z,1006
2018-04-15T10:54:27.194Z,1006.3
2018-04-15T11:04:42.030Z,1006.4
2018-04-15T11:14:55.901Z,1005.9
2018-04-15T11:25:10.943Z,1005.8
2018-04-15T11:35:26.660Z,1005.9
2018-04-15T11:45:40.558Z,1006.3
2018-04-15T11:55:55.514Z,1005.8
2018-04-15T12:06:11.052Z,1005.8
2018-04-15T12:16:26.143Z,1005.7
2018-04-15T12:26:40.483Z,1005.4
2018-04-15T12:36:54.602Z,1005.7
2018-04-15T12:47:09.966Z,1005.5
2018-04-15T12:57:24.677Z,1005.5
2018-04-15T13:07:38.566Z,1005.1
2018-04-15T13:17:53.872Z,1004.8
2018-04-15T13:28:09.676Z,1004.9
2018-04-15T13:38:23.483Z,1004.7
2018-04-15T13:48:39.120Z,1004.5
2018-04-15T13:58:54.628Z,1004.5
2018-04-15T14:09:10.178Z,1004.3
2018-04-15T14:19:24.356Z,1004.5
2018-04-15T14:29:38.441Z,1004.2
2018-04-15T14:39:52.333Z,1004.3
2018-04-15T14:50:07.245Z,1004.1
2018-04-15T15:00:22.235Z,1004
2018-04-15T15:10:37.625Z,1003.8
2018-04-15T15:20:53.203Z,1003.7
2018-04-15T15:31:08.244Z,1003.6
2018-04-15T15:41:22.509Z,1003.6
2018-04-15T15:51:37.482Z,1003.6
2018-04-15T16:01:52.832Z,1003.5
2018-04-15T16:12:08.199Z,1003.6
2018-04-15T16:22:22.781Z,1003.5
2018-04-15T16:32:38.094Z,1003.5
2018-04-15T16:42:52.225Z,1003.5
2018-04-15T16:53:06.809Z,1003.6
2018-04-15T17:03:20.662Z,1003.7
2018-04-15T17:13:35.203Z,1003.6
2018-04-15T17:23:50.568Z,1003.7
2018-04-15T17:34:04.643Z,1003.7
2018-04-15T17:44:19.761Z,1003.7
2018-04-15T17:54:34.394Z,1003.6
2018-04-15T18:04:48.262Z,1003.7
2018-04-15T18:15:02.506Z,1003.8
2018-04-15T18:25:17.892Z,1003.9
2018-04-15T18:35:32.352Z,1003.9
2018-04-15T18:45:46.245Z,1003.8
2018-04-15T18:56:01.220Z,1003.9
2018-04-15T19:06:14.994Z,1003.9
2018-04-15T19:16:29.664Z,1003.9
2018-04-15T19:26:44.992Z,1004
2018-04-15T19:36:59.666Z,1004.1
2018-04-15T19:47:14.185Z,1004.1
2018-04-15T19:57:29.267Z,1004
2018-04-15T20:07:44.265Z,1004
2018-04-15T20:17:59.032Z,1003.9
2018-04-15T20:28:12.794Z,1003.8
2018-04-15T20:38:28.055Z,1003.7
2018-04-15T20:48:42.472Z,1003.7
2018-04-15T20:58:57.612Z,1003.8
2018-04-15T21:09:12.667Z,1003.7
2018-04-15T21:19:28.343Z,1003.9
2018-04-15T21:29:44.063Z,1004.1
2018-04-15T21:39:57.936Z,1004.1
2018-04-15T21:50:13.524Z,1004.1
2018-04-15T22:00:27.892Z,1004
2018-04-15T22:10:42.227Z,1004
2018-04-15T22:20:56.320Z,1004
2018-04-15T22:31:11.155Z,1003.9
2018-04-15T22:41:25.893Z,1003.9
2018-04-15T22:51:40.725Z,1003.8
2018-04-15T23:01:55.382Z,1003.8
2018-04-15T23:12:09.835Z,1003.9
2018-04-15T23:22:25.455Z,1003.8
2018-04-15T23:32:39.714Z,1003.8
2018-04-15T23:42:54.067Z,1003.8
2018-04-15T23:53:08.228Z,1003.9
